createdAt,value
2017-11-07T00:01:42.584Z,30.40
2017-11-07T00:04:10.074Z,24.27
2017-11-07T00:06:37.344Z,25.67
2017-11-07T00:09:04.099Z,21.50
2017-11-07T00:11:31.183Z,20.75
2017-11-07T00:13:59.171Z,22.15
2017-11-07T00:16:27.190Z,22.83
2017-11-07T00:18:53.781Z,20.15
2017-11-07T00:21:20.907Z,22.02
2017-11-07T00:23:47.860Z,21.83
2017-11-07T00:26:14.836Z,20.12
2017-11-07T00:28:41.336Z,17.15
2017-11-07T00:31:08.620Z,19.95
2017-11-07T00:33:35.661Z,20.85
2017-11-07T00:36:01.952Z,21.65
2017-11-07T00:38:28.183Z,21.67
2017-11-07T00:40:55.282Z,23.62
2017-11-07T00:43:21.486Z,20.70
2017-11-07T00:45:47.708Z,26.60
2017-11-07T00:48:14.459Z,26.40
2017-11-07T00:50:41.802Z,22.35
2017-11-07T00:53:09.032Z,20.27
2017-11-07T00:55:36.136Z,18.27
2017-11-07T00:58:03.280Z,21.60
2017-11-07T01:00:30.045Z,22.83
2017-11-07T01:02:56.257Z,24.75
2017-11-07T01:07:56.153Z,30.08
2017-11-07T01:10:22.376Z,24.25
2017-11-07T01:12:49.482Z,24.58
2017-11-07T01:15:17.628Z,22.20
2017-11-07T01:17:44.365Z,23.05
2017-11-07T01:20:11.635Z,20.37
2017-11-07T01:22:38.399Z,17.17
2017-11-07T01:25:04.740Z,25.15
2017-11-07T01:27:33.337Z,17.62
2017-11-07T01:30:01.877Z,20.42
2017-11-07T01:32:28.851Z,19.60
2017-11-07T01:34:56.342Z,18.95
2017-11-07T01:37:22.614Z,20.85
2017-11-07T01:39:48.826Z,19.27
2017-11-07T01:42:16.193Z,23.75
2017-11-07T01:44:42.667Z,24.70
2017-11-07T01:47:10.366Z,24.08
2017-11-07T01:49:37.019Z,26.77
2017-11-07T01:52:04.633Z,18.35
2017-11-07T01:54:32.647Z,29.85
2017-11-07T01:57:04.573Z,28.77
2017-11-07T01:59:32.506Z,25.85
2017-11-07T02:01:58.724Z,29.00
2017-11-07T02:04:24.925Z,29.25
2017-11-07T02:06:51.232Z,22.00
2017-11-07T02:09:18.101Z,23.80
2017-11-07T02:11:44.563Z,19.95
2017-11-07T02:14:11.839Z,25.95
2017-11-07T02:16:39.725Z,19.67
2017-11-07T02:19:07.270Z,24.95
2017-11-07T02:21:33.870Z,25.35
2017-11-07T02:24:01.551Z,28.42
2017-11-07T02:26:29.019Z,22.95
2017-11-07T02:28:56.491Z,29.45
2017-11-07T02:31:23.529Z,24.27
2017-11-07T02:33:49.783Z,20.80
2017-11-07T02:36:16.070Z,18.85
2017-11-07T02:38:44.055Z,21.02
2017-11-07T02:41:10.603Z,18.92
2017-11-07T02:43:38.213Z,18.00
2017-11-07T02:46:05.456Z,19.67
2017-11-07T02:48:32.480Z,30.25
2017-11-07T02:50:59.719Z,34.95
2017-11-07T02:53:25.948Z,14.63
2017-11-07T02:55:53.177Z,13.68
2017-11-07T02:58:20.337Z,11.35
2017-11-07T03:00:47.591Z,7.95
2017-11-07T03:03:14.629Z,7.05
2017-11-07T03:05:41.404Z,4.37
2017-11-07T03:08:07.598Z,4.07
2017-11-07T03:10:34.527Z,4.93
2017-11-07T03:13:01.798Z,4.10
2017-11-07T03:15:29.978Z,4.00
2017-11-07T03:17:56.703Z,3.00
2017-11-07T03:20:23.054Z,3.33
2017-11-07T03:22:49.887Z,3.65
2017-11-07T03:25:16.086Z,2.75
2017-11-07T03:27:43.188Z,3.20
2017-11-07T03:30:09.967Z,3.87
2017-11-07T03:32:37.583Z,4.10
2017-11-07T03:35:03.836Z,3.30
2017-11-07T03:37:30.940Z,4.65
2017-11-07T03:39:57.733Z,4.75
2017-11-07T03:42:24.449Z,4.57
2017-11-07T03:44:51.050Z,6.43
2017-11-07T03:47:18.140Z,5.30
2017-11-07T03:52:37.993Z,7.18
2017-11-07T03:55:04.204Z,8.52
2017-11-07T03:57:31.263Z,9.88
2017-11-07T03:59:58.056Z,8.65
2017-11-07T04:02:24.284Z,7.78
2017-11-07T04:04:50.472Z,8.57
2017-11-07T04:07:16.866Z,9.35
2017-11-07T04:09:43.648Z,8.98
2017-11-07T04:12:09.895Z,10.05
2017-11-07T04:14:36.658Z,11.43
2017-11-07T04:17:03.539Z,11.15
2017-11-07T04:19:31.173Z,10.43
2017-11-07T04:21:57.957Z,10.98
2017-11-07T04:24:24.726Z,10.10
2017-11-07T04:26:51.492Z,9.40
2017-11-07T04:29:17.722Z,10.25
2017-11-07T04:31:43.955Z,12.75
2017-11-07T04:34:10.469Z,9.18
2017-11-07T04:36:38.135Z,11.27
2017-11-07T04:39:04.348Z,9.70
2017-11-07T04:41:30.935Z,11.32
2017-11-07T04:43:57.890Z,8.07
2017-11-07T04:46:24.381Z,11.27
2017-11-07T04:48:51.816Z,8.55
2017-11-07T04:51:19.365Z,10.43
2017-11-07T04:53:45.637Z,8.60
2017-11-07T04:56:11.866Z,14.20
2017-11-07T04:58:38.615Z,13.15
2017-11-07T05:01:06.658Z,8.80
2017-11-07T05:03:33.470Z,12.48
2017-11-07T05:06:01.038Z,13.30
2017-11-07T05:18:13.454Z,11.90
2017-11-07T05:20:41.394Z,14.30
2017-11-07T05:23:08.633Z,12.52
2017-11-07T05:25:34.872Z,13.90
2017-11-07T05:28:02.097Z,11.95
2017-11-07T05:30:29.040Z,9.45
2017-11-07T05:32:55.527Z,11.25
2017-11-07T05:35:22.499Z,12.32
2017-11-07T05:37:48.701Z,13.85
2017-11-07T05:40:16.730Z,11.32
2017-11-07T05:42:44.645Z,12.27
2017-11-07T05:45:12.490Z,12.77
2017-11-07T05:47:39.492Z,12.63
2017-11-07T05:50:05.731Z,10.98
2017-11-07T05:52:32.034Z,10.82
2017-11-07T05:54:58.471Z,11.63
2017-11-07T05:57:24.720Z,11.60
2017-11-07T05:59:50.927Z,12.05
2017-11-07T06:02:17.271Z,12.52
2017-11-07T06:04:43.489Z,14.63
2017-11-07T06:07:11.149Z,11.68
2017-11-07T06:09:37.414Z,10.88
2017-11-07T06:12:05.206Z,14.20
2017-11-07T06:14:31.552Z,10.55
2017-11-07T06:16:59.171Z,13.07
2017-11-07T06:19:25.767Z,11.10
2017-11-07T06:21:52.932Z,14.85
2017-11-07T06:24:19.160Z,16.08
2017-11-07T06:26:45.403Z,14.10
2017-11-07T06:29:12.521Z,11.23
2017-11-07T06:31:39.239Z,12.80
2017-11-07T06:34:06.255Z,16.55
2017-11-07T06:36:33.265Z,18.37
2017-11-07T06:39:00.000Z,17.12
2017-11-07T06:41:26.201Z,19.12
2017-11-07T06:43:53.730Z,30.27
2017-11-07T06:46:20.693Z,24.33
2017-11-07T06:48:47.286Z,19.02
2017-11-07T06:51:15.529Z,18.17
2017-11-07T06:53:42.419Z,19.95
2017-11-07T06:56:09.048Z,18.05
2017-11-07T06:58:35.276Z,20.90
2017-11-07T07:01:02.080Z,24.15
2017-11-07T07:03:29.758Z,21.48
2017-11-07T07:05:56.112Z,18.10
2017-11-07T07:08:22.739Z,20.27
2017-11-07T07:10:50.864Z,21.30
2017-11-07T07:13:18.657Z,21.50
2017-11-07T07:15:45.450Z,19.73
2017-11-07T07:18:11.776Z,26.80
2017-11-07T07:20:38.712Z,23.48
2017-11-07T07:23:04.938Z,18.45
2017-11-07T07:25:31.991Z,23.27
2017-11-07T07:27:58.204Z,23.62
2017-11-07T07:30:25.430Z,23.00
2017-11-07T07:32:52.159Z,22.02
2017-11-07T07:35:19.199Z,21.62
2017-11-07T07:37:45.444Z,20.83
2017-11-07T07:40:12.647Z,20.35
2017-11-07T07:42:38.851Z,23.58
2017-11-07T07:45:05.540Z,23.20
2017-11-07T07:47:32.355Z,20.60
2017-11-07T07:49:58.599Z,19.85
2017-11-07T07:52:26.152Z,19.98
2017-11-07T07:54:53.912Z,18.73
2017-11-07T07:57:20.857Z,22.70
2017-11-07T07:59:49.069Z,23.77
2017-11-07T08:02:16.751Z,20.05
2017-11-07T08:04:43.926Z,18.70
2017-11-07T08:07:10.715Z,19.00
2017-11-07T08:09:38.232Z,20.67
2017-11-07T08:12:05.949Z,22.60
2017-11-07T08:14:32.259Z,22.25
2017-11-07T08:16:59.627Z,21.17
2017-11-07T08:19:26.877Z,22.62
2017-11-07T08:21:54.463Z,19.80
2017-11-07T08:24:20.707Z,23.67
2017-11-07T08:26:47.294Z,21.90
2017-11-07T08:29:14.346Z,25.52
2017-11-07T08:31:40.584Z,17.80
2017-11-07T08:34:07.448Z,20.40
2017-11-07T08:36:35.707Z,19.83
2017-11-07T08:39:03.571Z,26.42
2017-11-07T08:41:31.174Z,20.05
2017-11-07T08:43:57.584Z,21.85
2017-11-07T08:46:24.400Z,21.75
2017-11-07T08:48:50.609Z,24.33
2017-11-07T08:51:17.088Z,22.92
2017-11-07T08:53:44.519Z,20.50
2017-11-07T08:56:11.327Z,22.42
2017-11-07T08:58:38.943Z,24.73
2017-11-07T09:01:05.748Z,23.55
2017-11-07T09:03:32.493Z,19.42
2017-11-07T09:05:59.575Z,19.60
2017-11-07T09:08:26.293Z,20.12
2017-11-07T09:10:54.326Z,21.67
2017-11-07T09:13:28.396Z,22.60
2017-11-07T09:15:56.474Z,23.50
2017-11-07T09:18:22.984Z,20.17
2017-11-07T09:20:49.862Z,18.37
2017-11-07T09:23:16.314Z,20.27
2017-11-07T09:25:43.429Z,20.37
2017-11-07T09:28:10.559Z,18.20
2017-11-07T09:30:37.819Z,19.10
2017-11-07T09:33:05.441Z,18.35
2017-11-07T09:35:31.667Z,18.27
2017-11-07T09:37:59.326Z,17.40
2017-11-07T09:40:26.891Z,18.45
2017-11-07T09:42:53.678Z,19.10
2017-11-07T09:45:20.023Z,18.62
2017-11-07T09:47:46.260Z,15.57
2017-11-07T09:50:13.565Z,17.05
2017-11-07T09:52:41.071Z,18.40
2017-11-07T09:55:09.138Z,16.65
2017-11-07T10:00:10.898Z,18.48
2017-11-07T10:02:37.123Z,18.02
2017-11-07T10:05:04.783Z,19.20
2017-11-07T10:07:31.399Z,17.85
2017-11-07T10:09:58.431Z,19.33
2017-11-07T10:12:26.208Z,18.48
2017-11-07T10:14:52.909Z,20.62
2017-11-07T10:17:19.188Z,20.40
2017-11-07T10:19:45.443Z,19.23
2017-11-07T10:22:14.358Z,18.55
2017-11-07T10:24:41.294Z,17.90
2017-11-07T10:27:08.984Z,18.20
2017-11-07T10:29:36.754Z,19.35
2017-11-07T10:32:02.995Z,19.25
2017-11-07T10:34:29.248Z,20.23
2017-11-07T10:36:55.579Z,18.58
2017-11-07T10:39:21.921Z,20.80
2017-11-07T10:41:48.926Z,17.80
2017-11-07T10:44:16.783Z,20.88
2017-11-07T10:46:44.017Z,18.23
2017-11-07T10:49:10.495Z,18.12
2017-11-07T10:51:37.921Z,17.95
2017-11-07T10:54:04.158Z,19.08
2017-11-07T10:56:31.131Z,18.42
2017-11-07T10:58:58.612Z,17.30
2017-11-07T11:01:26.282Z,19.77
2017-11-07T11:03:53.663Z,20.52
2017-11-07T11:06:21.224Z,21.33
2017-11-07T11:08:48.586Z,18.37
2017-11-07T11:11:15.307Z,19.10
2017-11-07T11:13:41.574Z,19.37
2017-11-07T11:16:07.786Z,19.92
2017-11-07T11:18:34.649Z,19.15
2017-11-07T11:21:01.281Z,19.95
2017-11-07T11:23:27.516Z,21.70
2017-11-07T11:25:53.733Z,16.30
2017-11-07T11:28:20.500Z,19.02
2017-11-07T11:30:47.484Z,20.83
2017-11-07T11:33:15.254Z,16.92
2017-11-07T11:35:41.523Z,17.93
2017-11-07T11:38:08.586Z,17.70
2017-11-07T11:40:34.868Z,21.33
2017-11-07T11:43:01.722Z,20.20
2017-11-07T11:45:27.949Z,18.27
2017-11-07T11:47:55.183Z,17.20
2017-11-07T11:50:22.018Z,17.75
2017-11-07T11:52:48.397Z,17.53
2017-11-07T11:55:15.306Z,21.17
2017-11-07T11:57:41.902Z,18.17
2017-11-07T12:00:08.517Z,18.40
2017-11-07T12:02:35.240Z,17.60
2017-11-07T12:05:02.120Z,17.70
2017-11-07T12:07:29.769Z,18.50
2017-11-07T12:09:56.059Z,18.60
2017-11-07T12:12:23.304Z,19.53
2017-11-07T12:14:50.664Z,19.00
2017-11-07T12:17:17.514Z,19.37
2017-11-07T12:19:44.860Z,17.10
2017-11-07T12:22:11.101Z,20.20
2017-11-07T12:24:37.970Z,18.73
2017-11-07T12:27:04.457Z,19.50
2017-11-07T12:29:31.325Z,18.00
2017-11-07T12:31:57.567Z,18.60
2017-11-07T12:34:23.900Z,16.08
2017-11-07T12:36:51.251Z,18.60
2017-11-07T12:39:18.518Z,16.77
2017-11-07T12:41:46.237Z,22.10
2017-11-07T12:44:12.569Z,16.73
2017-11-07T12:46:38.802Z,19.40
2017-11-07T12:49:05.028Z,20.50
2017-11-07T12:51:38.486Z,17.65
2017-11-07T12:54:04.711Z,17.58
2017-11-07T12:56:30.935Z,19.60
2017-11-07T12:58:58.929Z,19.67
2017-11-07T13:01:26.948Z,18.08
2017-11-07T13:03:53.219Z,18.10
2017-11-07T13:06:20.179Z,20.20
2017-11-07T13:08:46.433Z,19.27
2017-11-07T13:11:13.573Z,18.37
2017-11-07T13:13:40.177Z,22.35
2017-11-07T13:16:06.812Z,19.87
2017-11-07T13:18:33.041Z,18.95
2017-11-07T13:20:59.824Z,22.98
2017-11-07T13:23:26.929Z,19.05
2017-11-07T13:25:53.670Z,21.30
2017-11-07T13:28:20.413Z,22.50
2017-11-07T13:30:47.304Z,22.20
2017-11-07T13:33:14.050Z,21.17
2017-11-07T13:35:40.589Z,24.23
2017-11-07T13:38:08.134Z,24.12
2017-11-07T13:40:34.923Z,19.42
2017-11-07T13:43:01.378Z,23.02
2017-11-07T13:45:27.614Z,20.35
2017-11-07T13:47:53.832Z,24.67
2017-11-07T13:50:20.576Z,24.55
2017-11-07T13:52:47.356Z,25.60
2017-11-07T13:55:13.837Z,23.45
2017-11-07T13:57:40.267Z,25.95
2017-11-07T14:00:06.855Z,24.85
2017-11-07T14:02:33.055Z,25.05
2017-11-07T14:04:59.264Z,24.87
2017-11-07T14:07:25.722Z,22.80
2017-11-07T14:09:53.897Z,23.65
2017-11-07T14:12:21.351Z,20.83
2017-11-07T14:14:49.864Z,27.30
2017-11-07T14:17:17.432Z,22.48
2017-11-07T14:19:44.355Z,25.35
2017-11-07T14:22:11.759Z,24.45
2017-11-07T14:24:38.561Z,21.17
2017-11-07T14:27:05.085Z,22.13
2017-11-07T14:29:32.744Z,23.38
2017-11-07T14:31:58.985Z,24.45
2017-11-07T14:34:26.234Z,27.45
2017-11-07T14:36:52.460Z,27.40
2017-11-07T14:39:19.237Z,27.33
2017-11-07T14:41:46.003Z,24.63
2017-11-07T14:44:13.252Z,25.73
2017-11-07T14:46:40.938Z,23.77
2017-11-07T14:49:07.160Z,26.67
2017-11-07T14:51:34.027Z,23.87
2017-11-07T14:54:01.423Z,24.90
2017-11-07T14:56:30.104Z,26.23
2017-11-07T14:58:56.874Z,23.73
2017-11-07T15:01:24.114Z,26.92
2017-11-07T15:03:50.380Z,26.50
2017-11-07T15:06:17.251Z,26.75
2017-11-07T15:08:44.219Z,26.08
2017-11-07T15:11:11.141Z,28.65
2017-11-07T15:13:38.743Z,31.05
2017-11-07T15:16:05.567Z,27.70
2017-11-07T15:18:32.604Z,30.15
2017-11-07T15:20:59.430Z,23.73
2017-11-07T15:23:26.643Z,27.10
2017-11-07T15:25:53.675Z,26.10
2017-11-07T15:28:21.428Z,25.62
2017-11-07T15:30:47.652Z,26.60
2017-11-07T15:33:14.862Z,26.00
2017-11-07T15:35:41.630Z,28.33
2017-11-07T15:38:07.913Z,24.20
2017-11-07T15:40:34.596Z,25.40
2017-11-07T15:43:01.457Z,26.50
2017-11-07T15:45:27.692Z,27.52
2017-11-07T15:47:55.441Z,29.85
2017-11-07T15:50:21.674Z,28.23
2017-11-07T15:52:48.433Z,27.95
2017-11-07T15:55:14.707Z,27.30
2017-11-07T16:10:47.215Z,31.02
2017-11-07T16:13:13.671Z,25.75
2017-11-07T16:15:40.690Z,28.73
2017-11-07T16:18:07.012Z,29.33
2017-11-07T16:20:33.494Z,28.73
2017-11-07T16:23:01.001Z,33.10
2017-11-07T16:25:27.346Z,27.92
2017-11-07T16:27:53.663Z,31.12
2017-11-07T16:30:19.892Z,32.45
2017-11-07T16:32:46.990Z,28.77
2017-11-07T16:35:17.463Z,30.20
2017-11-07T16:37:44.498Z,29.08
2017-11-07T16:40:11.521Z,29.25
2017-11-07T16:42:39.195Z,30.15
2017-11-07T16:45:06.754Z,29.27
2017-11-07T16:47:34.244Z,30.40
2017-11-07T16:59:49.571Z,30.27
2017-11-07T17:02:15.856Z,33.47
2017-11-07T17:04:42.427Z,32.40
2017-11-07T17:07:09.528Z,31.73
2017-11-07T17:09:36.851Z,30.77
2017-11-07T17:12:04.019Z,28.25
2017-11-07T17:14:30.660Z,32.40
2017-11-07T17:16:58.198Z,32.92
2017-11-07T17:19:26.444Z,29.15
2017-11-07T17:21:53.551Z,34.20
2017-11-07T17:24:20.451Z,31.60
2017-11-07T17:26:46.813Z,30.85
2017-11-07T17:29:13.420Z,28.90
2017-11-07T17:31:39.736Z,31.60
2017-11-07T17:34:06.971Z,31.33
2017-11-07T17:36:34.948Z,46.95
2017-11-07T17:39:01.500Z,30.27
2017-11-07T17:41:28.743Z,31.17
2017-11-07T17:43:54.998Z,34.30
2017-11-07T17:46:21.463Z,31.60
2017-11-07T17:48:49.435Z,30.33
2017-11-07T17:51:16.392Z,29.70
2017-11-07T17:53:43.582Z,27.30
2017-11-07T17:56:10.751Z,29.35
2017-11-07T17:58:37.004Z,34.90
2017-11-07T18:01:03.970Z,29.67
2017-11-07T18:03:30.946Z,30.77
2017-11-07T18:05:57.233Z,31.40
2017-11-07T18:08:23.570Z,31.05
2017-11-07T18:10:50.356Z,29.52
2017-11-07T18:13:17.577Z,28.85
2017-11-07T18:15:45.075Z,29.80
2017-11-07T18:18:12.198Z,32.40
2017-11-07T18:20:39.120Z,28.27
2017-11-07T18:23:06.584Z,31.77
2017-11-07T18:25:34.555Z,29.63
2017-11-07T18:28:01.531Z,25.88
2017-11-07T18:30:28.090Z,25.77
2017-11-07T18:32:56.277Z,31.90
2017-11-07T18:35:24.402Z,25.67
2017-11-07T18:37:51.641Z,25.55
2017-11-07T18:40:19.209Z,26.48
2017-11-07T18:42:45.954Z,27.87
2017-11-07T18:45:13.065Z,27.75
2017-11-07T18:47:39.324Z,26.55
2017-11-07T18:50:05.618Z,26.20
2017-11-07T18:52:31.996Z,24.80
2017-11-07T18:54:59.362Z,25.70
2017-11-07T18:57:25.613Z,24.02
2017-11-07T18:59:52.871Z,26.05
2017-11-07T19:02:19.276Z,22.08
2017-11-07T19:04:46.967Z,22.50
2017-11-07T19:07:13.203Z,24.45
2017-11-07T19:09:40.784Z,22.70
2017-11-07T19:12:08.962Z,25.67
2017-11-07T19:14:36.962Z,23.55
2017-11-07T19:17:05.064Z,22.83
2017-11-07T19:19:31.826Z,23.65
2017-11-07T19:21:59.980Z,22.85
2017-11-07T19:24:27.642Z,27.75
2017-11-07T19:26:54.884Z,24.55
2017-11-07T19:29:21.449Z,22.30
2017-11-07T19:31:49.318Z,22.75
2017-11-07T19:34:16.680Z,23.98
2017-11-07T19:36:44.227Z,24.48
2017-11-07T19:39:10.607Z,22.60
2017-11-07T19:41:37.289Z,23.58
2017-11-07T19:44:04.959Z,23.10
2017-11-07T19:46:31.347Z,19.15
2017-11-07T19:48:59.522Z,25.45
2017-11-07T19:51:26.330Z,20.35
2017-11-07T19:53:52.852Z,22.20
2017-11-07T19:56:20.465Z,21.80
2017-11-07T19:58:46.724Z,23.48
2017-11-07T20:01:13.524Z,20.52
2017-11-07T20:03:39.795Z,23.23
2017-11-07T20:06:07.050Z,25.80
2017-11-07T20:08:33.801Z,21.55
2017-11-07T20:11:02.092Z,20.75
2017-11-07T20:13:29.197Z,21.42
2017-11-07T20:15:56.497Z,23.48
2017-11-07T20:18:24.515Z,25.80
2017-11-07T20:20:51.361Z,18.10
2017-11-07T20:23:18.579Z,22.35
2017-11-07T20:25:45.370Z,24.20
2017-11-07T20:28:11.853Z,19.45
2017-11-07T20:30:39.088Z,20.67
2017-11-07T20:33:05.319Z,24.45
2017-11-07T20:35:32.213Z,20.85
2017-11-07T20:37:58.861Z,24.08
2017-11-07T20:40:26.586Z,22.80
2017-11-07T20:42:54.239Z,23.77
2017-11-07T20:45:21.281Z,21.05
2017-11-07T20:47:48.049Z,21.95
2017-11-07T20:50:15.242Z,19.30
2017-11-07T20:52:42.224Z,18.90
2017-11-07T20:55:08.565Z,24.30
2017-11-07T20:57:35.202Z,20.12
2017-11-07T21:00:02.996Z,23.05
2017-11-07T21:02:30.044Z,18.55
2017-11-07T21:14:43.336Z,19.35
2017-11-07T21:17:10.882Z,19.35
2017-11-07T21:19:38.146Z,16.15
2017-11-07T21:22:05.841Z,18.70
2017-11-07T21:24:32.143Z,20.05
2017-11-07T21:26:58.349Z,19.30
2017-11-07T21:29:26.165Z,21.17
2017-11-07T21:31:53.656Z,18.08
2017-11-07T21:34:21.758Z,18.12
2017-11-07T21:36:49.316Z,21.98
2017-11-07T21:39:15.804Z,20.33
2017-11-07T21:41:42.045Z,20.65
2017-11-07T21:44:09.393Z,19.70
2017-11-07T21:46:36.284Z,18.23
2017-11-07T21:49:02.540Z,17.98
2017-11-07T21:51:29.760Z,21.00
2017-11-07T21:53:56.300Z,21.52
2017-11-07T21:56:23.494Z,19.35
2017-11-07T21:58:49.882Z,21.90
2017-11-07T22:01:16.740Z,18.98
2017-11-07T22:03:48.587Z,21.40
2017-11-07T22:06:15.533Z,18.62
2017-11-07T22:08:42.473Z,19.45
2017-11-07T22:11:08.688Z,20.00
2017-11-07T22:13:34.908Z,20.10
2017-11-07T22:16:02.015Z,18.35
2017-11-07T22:18:28.369Z,22.20
2017-11-07T22:20:55.739Z,17.15
2017-11-07T22:23:25.102Z,22.98
2017-11-07T22:25:53.084Z,18.27
2017-11-07T22:28:20.741Z,17.92
2017-11-07T22:30:48.473Z,16.55
2017-11-07T22:33:16.010Z,16.27
2017-11-07T22:35:42.756Z,19.15
2017-11-07T22:38:10.045Z,21.30
2017-11-07T22:40:36.279Z,22.33
2017-11-07T22:43:02.774Z,19.37
2017-11-07T22:45:29.744Z,20.33
2017-11-07T22:47:56.260Z,17.30
2017-11-07T22:50:24.429Z,19.75
2017-11-07T22:52:52.177Z,21.15
2017-11-07T22:55:19.306Z,20.95
2017-11-07T22:57:45.548Z,26.75
2017-11-07T23:00:12.349Z,28.58
2017-11-07T23:02:39.008Z,21.95
2017-11-07T23:05:06.769Z,23.50
2017-11-07T23:07:33.830Z,28.10
2017-11-07T23:10:00.337Z,21.37
2017-11-07T23:12:26.873Z,23.90
2017-11-07T23:14:53.121Z,24.33
2017-11-07T23:17:19.991Z,24.52
2017-11-07T23:19:46.476Z,20.62
2017-11-07T23:22:13.317Z,18.98
2017-11-07T23:24:39.796Z,24.98
2017-11-07T23:27:07.316Z,25.30
2017-11-07T23:29:34.128Z,24.33
2017-11-07T23:32:00.793Z,21.42
2017-11-07T23:34:27.259Z,21.70
2017-11-07T23:36:54.675Z,27.25
2017-11-07T23:39:21.114Z,20.67
2017-11-07T23:41:48.989Z,23.35
2017-11-07T23:44:16.732Z,22.25
2017-11-07T23:56:28.059Z,22.35
2017-11-07T23:58:56.409Z,22.37
